Time;durP1;ratioP1;P1;durP2;ratioP2;P2;SDS_P1;SDS_P2;PMS_P1;PMS_P2;Temp;Humidity;BMP_temperature;BMP_pressure;BME280_temperature;BME280_humidity;BME280_pressure;Samples;Min_cycle;Max_cycle;Signal;HPM_P1;HPM_P2
2023/07/15 00:01:28;;;;;;;4.25;2.42;;;;;;;-141.20;100.00;60650.00;5059399;28;20094;-74
2023/07/15 00:03:54;;;;;;;2.67;2.40;;;;;;;-141.20;100.00;60650.00;5035822;28;20087;-73
2023/07/15 00:06:23;;;;;;;3.72;2.70;;;;;;;-141.20;100.00;60650.00;5068503;28;20036;-73
2023/07/15 00:08:50;;;;;;;4.00;2.53;;;;;;;-141.20;100.00;60650.00;5052930;28;20060;-73
2023/07/15 00:11:24;;;;;;;5.32;2.50;;;;;;;-141.20;100.00;60650.00;5052467;28;20028;-73
2023/07/15 00:13:50;;;;;;;2.92;2.42;;;;;;;-141.20;100.00;60650.00;5060919;28;20838;-73
2023/07/15 00:16:15;;;;;;;3.55;2.20;;;;;;;-141.20;100.00;60650.00;5053497;28;20037;-73
2023/07/15 00:18:41;;;;;;;4.25;2.40;;;;;;;-141.20;100.00;60650.00;5062424;28;20036;-73
2023/07/15 00:21:22;;;;;;;3.47;2.38;;;;;;;-141.20;100.00;60650.00;5065868;28;20372;-73
2023/07/15 00:23:53;;;;;;;3.15;2.47;;;;;;;-141.20;100.00;60650.00;5048499;28;20056;-74
2023/07/15 00:26:19;;;;;;;3.20;2.63;;;;;;;-141.20;100.00;60650.00;5060611;28;20045;-72
2023/07/15 00:28:45;;;;;;;3.00;2.50;;;;;;;-141.20;100.00;60650.00;5055531;28;20024;-73
2023/07/15 00:31:13;;;;;;;3.10;2.30;;;;;;;-141.20;100.00;60650.00;5055323;28;20509;-73
2023/07/15 00:33:40;;;;;;;3.03;2.30;;;;;;;-141.20;100.00;60650.00;5071135;28;20486;-72
2023/07/15 00:36:06;;;;;;;5.25;2.70;;;;;;;-141.20;100.00;60650.00;5035474;28;20075;-74
2023/07/15 00:38:34;;;;;;;5.25;2.65;;;;;;;-141.20;100.00;60650.00;5048654;28;20413;-73
2023/07/15 00:41:00;;;;;;;3.13;2.55;;;;;;;-141.20;100.00;60650.00;5035319;28;20060;-73
2023/07/15 00:43:58;;;;;;;3.72;2.50;;;;;;;-141.20;100.00;60650.00;5029401;28;20487;-73
2023/07/15 00:46:38;;;;;;;4.57;2.60;;;;;;;-141.20;100.00;60650.00;5047653;28;20040;-73
2023/07/15 00:49:07;;;;;;;3.38;2.67;;;;;;;-141.20;100.00;60650.00;5042756;28;20429;-73
2023/07/15 00:51:35;;;;;;;3.95;2.28;;;;;;;-141.20;100.00;60650.00;5057740;28;20714;-73
2023/07/15 00:54:02;;;;;;;3.58;2.65;;;;;;;-141.20;100.00;60650.00;5038160;28;20052;-73
2023/07/15 00:56:31;;;;;;;4.55;2.75;;;;;;;-141.20;100.00;60650.00;5052954;28;20494;-73
2023/07/15 00:58:57;;;;;;;4.72;2.55;;;;;;;-141.20;100.00;60650.00;5027198;28;20037;-73
2023/07/15 01:01:23;;;;;;;5.15;2.90;;;;;;;-141.20;100.00;60650.00;5057683;28;20013;-73
2023/07/15 01:03:48;;;;;;;3.08;2.50;;;;;;;-141.20;100.00;60650.00;5071235;28;20066;-73
2023/07/15 01:06:14;;;;;;;3.10;2.50;;;;;;;-141.20;100.00;60650.00;5041194;28;20112;-73
2023/07/15 01:08:41;;;;;;;4.32;2.70;;;;;;;-141.20;100.00;60650.00;5051644;28;20059;-75
2023/07/15 01:11:07;;;;;;;3.20;2.72;;;;;;;-141.20;100.00;60650.00;5041308;28;20120;-75
2023/07/15 01:13:33;;;;;;;4.25;2.85;;;;;;;-141.20;100.00;60650.00;5051083;28;20403;-75
2023/07/15 01:15:58;;;;;;;5.32;2.70;;;;;;;-141.20;100.00;60650.00;5051126;28;20033;-75
2023/07/15 01:18:24;;;;;;;3.03;2.40;;;;;;;-141.20;100.00;60650.00;5034512;28;20033;-75
2023/07/15 01:20:50;;;;;;;4.53;2.95;;;;;;;-141.20;100.00;60650.00;5049497;28;20033;-75
2023/07/15 01:23:16;;;;;;;5.38;3.03;;;;;;;-141.20;100.00;60650.00;5051266;28;20131;-75
2023/07/15 01:25:43;;;;;;;5.63;2.55;;;;;;;-141.20;100.00;60650.00;5068534;28;20024;-76
2023/07/15 01:28:09;;;;;;;4.45;2.60;;;;;;;-141.20;100.00;60650.00;5051355;28;20032;-75
2023/07/15 01:30:35;;;;;;;4.72;2.90;;;;;;;-141.20;100.00;60650.00;5080917;28;20031;-74
2023/07/15 01:33:00;;;;;;;3.22;2.70;;;;;;;-141.20;100.00;60650.00;5042848;28;20035;-74
2023/07/15 01:35:25;;;;;;;3.10;2.80;;;;;;;-141.20;100.00;60650.00;5053730;28;20508;-74
2023/07/15 01:37:51;;;;;;;2.92;2.63;;;;;;;-141.20;100.00;60650.00;5063192;28;20037;-74
2023/07/15 01:40:17;;;;;;;3.80;2.72;;;;;;;-141.20;100.00;60650.00;5034098;28;20028;-74
2023/07/15 01:42:42;;;;;;;3.38;2.78;;;;;;;-141.20;100.00;60650.00;5034084;28;20032;-75
2023/07/15 01:45:11;;;;;;;3.78;2.70;;;;;;;-141.20;100.00;60650.00;5050684;28;20386;-74
2023/07/15 01:47:37;;;;;;;4.70;2.85;;;;;;;-141.20;100.00;60650.00;5050470;28;20041;-73
2023/07/15 01:50:05;;;;;;;4.45;2.78;;;;;;;-141.20;100.00;60650.00;5046044;28;20074;-73
2023/07/15 01:52:31;;;;;;;3.15;2.72;;;;;;;-141.20;100.00;60650.00;5034381;28;20498;-73
2023/07/15 01:54:57;;;;;;;5.00;2.92;;;;;;;-141.20;100.00;60650.00;5034058;28;20067;-73
2023/07/15 01:57:25;;;;;;;3.30;2.53;;;;;;;-141.20;100.00;60650.00;5059566;28;20394;-73
2023/07/15 01:59:57;;;;;;;3.67;3.03;;;;;;;-141.20;100.00;60650.00;5057075;28;20032;-73
2023/07/15 02:02:24;;;;;;;3.28;2.40;;;;;;;-141.20;100.00;60650.00;5071775;28;20028;-74
2023/07/15 02:04:49;;;;;;;3.47;2.90;;;;;;;-141.20;100.00;60650.00;5050272;28;20028;-73
2023/07/15 02:07:15;;;;;;;3.05;2.50;;;;;;;-141.20;100.00;60650.00;5060060;28;20363;-74
2023/07/15 02:09:40;;;;;;;5.15;2.70;;;;;;;-141.20;100.00;60650.00;5053399;28;20071;-73
2023/07/15 02:12:06;;;;;;;6.40;2.67;;;;;;;-141.20;100.00;60650.00;5043478;28;20029;-73
2023/07/15 02:14:31;;;;;;;3.65;2.88;;;;;;;-141.20;100.00;60650.00;5067989;28;20395;-73
2023/07/15 02:16:57;;;;;;;4.57;2.53;;;;;;;-141.20;100.00;60650.00;5069661;28;20039;-74
2023/07/15 02:19:25;;;;;;;3.53;2.60;;;;;;;-141.20;100.00;60650.00;5056710;28;20643;-73
2023/07/15 02:21:51;;;;;;;3.22;2.50;;;;;;;-141.20;100.00;60650.00;5070296;28;20514;-73
2023/07/15 02:24:16;;;;;;;4.32;2.80;;;;;;;-141.20;100.00;60650.00;5053366;28;20024;-73
2023/07/15 02:26:41;;;;;;;2.72;2.38;;;;;;;-141.20;100.00;60650.00;5049909;28;20091;-73
2023/07/15 02:29:07;;;;;;;4.07;2.53;;;;;;;-141.20;100.00;60650.00;5053418;28;20024;-74
2023/07/15 02:31:34;;;;;;;4.07;2.60;;;;;;;-141.20;100.00;60650.00;5070118;28;20151;-73
2023/07/15 02:33:59;;;;;;;3.35;2.50;;;;;;;-141.20;100.00;60650.00;5066655;28;20029;-77
2023/07/15 02:36:25;;;;;;;3.65;2.78;;;;;;;-141.20;100.00;60650.00;5050313;28;20036;-74
2023/07/15 02:38:50;;;;;;;5.38;2.95;;;;;;;-141.20;100.00;60650.00;5063338;28;20029;-74
2023/07/15 02:41:16;;;;;;;3.58;2.80;;;;;;;-141.20;100.00;60650.00;5050115;28;20040;-74
2023/07/15 02:43:42;;;;;;;3.20;2.90;;;;;;;-141.20;100.00;60650.00;5053140;28;20028;-74
2023/07/15 02:46:07;;;;;;;6.97;2.80;;;;;;;-141.20;100.00;60650.00;5060024;28;20036;-74
2023/07/15 02:48:32;;;;;;;3.03;2.55;;;;;;;-141.20;100.00;60650.00;5046639;28;20554;-74
2023/07/15 02:50:58;;;;;;;4.63;2.70;;;;;;;-141.20;100.00;60650.00;5043039;28;20040;-75
2023/07/15 02:53:23;;;;;;;4.80;2.90;;;;;;;-141.20;100.00;60650.00;5069803;28;20531;-74
2023/07/15 02:55:52;;;;;;;4.88;2.92;;;;;;;-141.20;100.00;60650.00;5039808;28;20029;-74
2023/07/15 02:58:18;;;;;;;4.03;3.10;;;;;;;-141.20;100.00;60650.00;5053177;28;20043;-74
2023/07/15 03:00:44;;;;;;;3.90;2.92;;;;;;;-141.20;100.00;60650.00;5053355;28;20033;-74
2023/07/15 03:03:10;;;;;;;4.20;2.70;;;;;;;-141.20;100.00;60650.00;5039622;28;20039;-74
2023/07/15 03:05:36;;;;;;;5.43;3.00;;;;;;;-141.20;100.00;60650.00;5069875;28;20374;-74
2023/07/15 03:08:01;;;;;;;4.47;3.00;;;;;;;-141.20;100.00;60650.00;5057751;28;20025;-74
2023/07/15 03:10:27;;;;;;;4.07;2.90;;;;;;;-141.20;100.00;60650.00;5049829;28;20036;-74
2023/07/15 03:12:52;;;;;;;4.38;2.75;;;;;;;-141.20;100.00;60650.00;5046047;28;20439;-75
2023/07/15 03:15:19;;;;;;;4.00;2.78;;;;;;;-141.20;100.00;60650.00;5059563;28;20115;-76
2023/07/15 03:17:44;;;;;;;3.78;3.10;;;;;;;-141.20;100.00;60650.00;5039582;28;20027;-74
2023/07/15 03:20:21;;;;;;;6.40;3.33;;;;;;;-141.20;100.00;60650.00;5043759;28;20414;-73
2023/07/15 03:22:51;;;;;;;4.57;2.83;;;;;;;-141.20;100.00;60650.00;5067448;28;20430;-77
2023/07/15 03:25:19;;;;;;;3.55;2.80;;;;;;;-141.20;100.00;60650.00;5033079;28;20037;-77
2023/07/15 03:27:45;;;;;;;3.38;2.90;;;;;;;-141.20;100.00;60650.00;5068876;28;20021;-76
2023/07/15 03:30:10;;;;;;;3.78;2.63;;;;;;;-141.20;100.00;60650.00;5036742;28;20131;-76
2023/07/15 03:32:40;;;;;;;4.63;2.83;;;;;;;-141.20;100.00;60650.00;5053469;28;20031;-76
2023/07/15 03:35:08;;;;;;;3.58;2.95;;;;;;;-141.20;100.00;60650.00;5036989;28;20441;-76
2023/07/15 03:37:34;;;;;;;4.00;2.72;;;;;;;-141.20;100.00;60650.00;5043069;28;20442;-73
2023/07/15 03:40:00;;;;;;;6.22;3.05;;;;;;;-141.20;100.00;60650.00;5061306;28;20064;-75
2023/07/15 03:42:26;;;;;;;3.42;2.65;;;;;;;-141.20;100.00;60650.00;5052841;28;20021;-75
2023/07/15 03:44:52;;;;;;;3.83;2.70;;;;;;;-141.20;100.00;60650.00;5062759;28;20167;-75
2023/07/15 03:47:18;;;;;;;5.47;2.83;;;;;;;-141.20;100.00;60650.00;5036458;28;20025;-74
2023/07/15 03:49:44;;;;;;;6.57;2.72;;;;;;;-141.20;100.00;60650.00;5046446;28;20048;-74
2023/07/15 03:52:10;;;;;;;5.78;2.85;;;;;;;-141.20;100.00;60650.00;5059681;28;20029;-73
2023/07/15 03:54:35;;;;;;;4.50;3.00;;;;;;;-141.20;100.00;60650.00;5074027;28;20074;-73
2023/07/15 03:57:00;;;;;;;4.00;2.90;;;;;;;-141.20;100.00;60650.00;5066131;28;20029;-74
2023/07/15 03:59:26;;;;;;;4.70;2.88;;;;;;;-141.20;100.00;60650.00;5049209;28;20040;-75
2023/07/15 04:01:51;;;;;;;3.85;3.00;;;;;;;-141.20;100.00;60650.00;5055978;28;20055;-76
2023/07/15 04:04:16;;;;;;;3.65;2.97;;;;;;;-141.20;100.00;60650.00;5073130;28;20047;-75
2023/07/15 04:06:43;;;;;;;5.15;3.03;;;;;;;-141.20;100.00;60650.00;5054056;28;20103;-76
2023/07/15 04:09:11;;;;;;;5.55;2.95;;;;;;;-141.20;100.00;60650.00;5036720;28;20056;-75
2023/07/15 04:11:38;;;;;;;8.50;3.00;;;;;;;-141.20;100.00;60650.00;5042620;28;20470;-74
2023/07/15 04:14:03;;;;;;;3.13;2.83;;;;;;;-141.20;100.00;60650.00;5052247;28;20094;-74
2023/07/15 04:16:29;;;;;;;4.63;2.80;;;;;;;-141.20;100.00;60650.00;5072654;28;20025;-74
2023/07/15 04:18:55;;;;;;;4.40;2.80;;;;;;;-141.20;100.00;60650.00;5055427;28;20502;-74
2023/07/15 04:21:21;;;;;;;5.45;3.13;;;;;;;-141.20;100.00;60650.00;5065854;28;20082;-76
2023/07/15 04:23:46;;;;;;;5.65;3.03;;;;;;;-141.20;100.00;60650.00;5065610;28;20047;-75
2023/07/15 04:26:12;;;;;;;5.28;3.00;;;;;;;-141.20;100.00;60650.00;5072535;28;20017;-74
2023/07/15 04:28:37;;;;;;;4.07;2.90;;;;;;;-141.20;100.00;60650.00;5055741;28;20132;-74
2023/07/15 04:31:03;;;;;;;4.22;3.00;;;;;;;-141.20;100.00;60650.00;5066080;28;20036;-74
2023/07/15 04:33:28;;;;;;;3.67;2.80;;;;;;;-141.20;100.00;60650.00;5064919;28;20032;-73
2023/07/15 04:35:53;;;;;;;4.78;2.90;;;;;;;-141.20;100.00;60650.00;5058753;28;20052;-74
2023/07/15 04:38:21;;;;;;;3.85;2.88;;;;;;;-141.20;100.00;60650.00;5055164;28;20039;-75
2023/07/15 04:40:46;;;;;;;4.50;3.30;;;;;;;-141.20;100.00;60650.00;5042386;28;20398;-74
2023/07/15 04:43:12;;;;;;;6.50;2.63;;;;;;;-141.20;100.00;60650.00;5072851;28;20044;-76
2023/07/15 04:45:37;;;;;;;4.55;2.75;;;;;;;-141.20;100.00;60650.00;5065759;28;20028;-77
2023/07/15 04:48:03;;;;;;;3.85;3.03;;;;;;;-141.20;100.00;60650.00;5053342;28;20473;-78
2023/07/15 04:50:28;;;;;;;5.82;3.30;;;;;;;-141.20;100.00;60650.00;5050833;28;20021;-78
2023/07/15 04:52:54;;;;;;;4.15;2.85;;;;;;;-141.20;100.00;60650.00;5047040;28;20037;-78
2023/07/15 04:55:20;;;;;;;3.58;2.80;;;;;;;-141.20;100.00;60650.00;5049198;28;20025;-79
2023/07/15 04:57:45;;;;;;;4.55;2.72;;;;;;;-141.20;100.00;60650.00;5047641;28;20036;-78
2023/07/15 05:00:11;;;;;;;3.40;3.10;;;;;;;-141.20;100.00;60650.00;5051711;28;20467;-76
2023/07/15 05:02:40;;;;;;;6.85;3.10;;;;;;;-141.20;100.00;60650.00;5051401;28;20116;-76
2023/07/15 05:05:06;;;;;;;5.10;2.65;;;;;;;-141.20;100.00;60650.00;5055261;28;20035;-77
2023/07/15 05:07:34;;;;;;;5.53;2.85;;;;;;;-141.20;100.00;60650.00;5058057;28;20040;-76
2023/07/15 05:09:59;;;;;;;3.20;2.90;;;;;;;-141.20;100.00;60650.00;5025338;28;20039;-77
2023/07/15 05:12:26;;;;;;;5.03;2.85;;;;;;;-141.20;100.00;60650.00;5058095;28;20033;-77
2023/07/15 05:14:54;;;;;;;6.25;2.90;;;;;;;-141.20;100.00;60650.00;5051611;28;20021;-78
2023/07/15 05:17:21;;;;;;;5.53;3.20;;;;;;;-141.20;100.00;60650.00;5058166;28;20157;-79
2023/07/15 05:19:47;;;;;;;3.13;2.83;;;;;;;-141.20;100.00;60650.00;5039114;28;20091;-78
2023/07/15 05:22:12;;;;;;;4.63;2.80;;;;;;;-141.20;100.00;60650.00;5056390;28;20035;-77
2023/07/15 05:24:38;;;;;;;3.28;2.92;;;;;;;-141.20;100.00;60650.00;5028112;28;20055;-75
2023/07/15 05:27:04;;;;;;;5.70;3.20;;;;;;;-141.20;100.00;60650.00;5065905;28;20060;-74
2023/07/15 05:29:30;;;;;;;6.03;3.20;;;;;;;-141.20;100.00;60650.00;5022043;28;20029;-74
2023/07/15 05:31:55;;;;;;;5.07;2.83;;;;;;;-141.20;100.00;60650.00;5053378;28;20529;-74
2023/07/15 05:34:21;;;;;;;3.97;2.80;;;;;;;-141.20;100.00;60650.00;5024728;28;20383;-74
2023/07/15 05:36:47;;;;;;;3.60;2.90;;;;;;;-141.20;100.00;60650.00;5058172;28;20036;-73
2023/07/15 05:39:13;;;;;;;5.22;3.30;;;;;;;-141.20;100.00;60650.00;5064308;28;20116;-73
2023/07/15 05:41:39;;;;;;;3.75;2.97;;;;;;;-141.20;100.00;60650.00;5070063;28;20092;-72
2023/07/15 05:44:04;;;;;;;5.40;3.08;;;;;;;-141.20;100.00;60650.00;5059153;28;20539;-72
2023/07/15 05:46:30;;;;;;;4.88;3.03;;;;;;;-141.20;100.00;60650.00;5051735;28;20041;-73
2023/07/15 05:48:55;;;;;;;4.50;3.15;;;;;;;-141.20;100.00;60650.00;5051696;28;20116;-72
2023/07/15 05:51:21;;;;;;;3.70;3.03;;;;;;;-141.20;100.00;60650.00;5062595;28;20078;-72
2023/07/15 05:53:46;;;;;;;3.22;2.92;;;;;;;-141.20;100.00;60650.00;5051951;28;20020;-72
2023/07/15 05:56:12;;;;;;;5.40;2.95;;;;;;;-141.20;100.00;60650.00;5050670;28;20041;-73
2023/07/15 05:58:37;;;;;;;4.80;3.38;;;;;;;-141.20;100.00;60650.00;5033587;28;20025;-73
2023/07/15 06:01:03;;;;;;;3.47;2.90;;;;;;;-141.20;100.00;60650.00;5051593;28;20059;-72
2023/07/15 06:03:29;;;;;;;4.70;2.78;;;;;;;-141.20;100.00;60650.00;5051441;28;20199;-72
2023/07/15 06:06:00;;;;;;;3.55;3.20;;;;;;;-141.20;100.00;60650.00;5050291;28;20540;-72
2023/07/15 06:08:26;;;;;;;3.58;3.20;;;;;;;-141.20;100.00;60650.00;5049984;28;20033;-72
2023/07/15 06:10:51;;;;;;;2.92;2.72;;;;;;;-141.20;100.00;60650.00;5062858;28;20371;-72
2023/07/15 06:13:16;;;;;;;5.13;2.90;;;;;;;-141.20;100.00;60650.00;5051603;28;20041;-73
2023/07/15 06:15:42;;;;;;;5.30;3.10;;;;;;;-141.20;100.00;60650.00;5051412;28;20021;-72
2023/07/15 06:18:08;;;;;;;4.55;2.95;;;;;;;-141.20;100.00;60650.00;5067423;28;20107;-72
2023/07/15 06:20:38;;;;;;;3.63;2.70;;;;;;;-141.20;100.00;60650.00;5057663;28;20569;-72
2023/07/15 06:23:03;;;;;;;4.72;2.97;;;;;;;-141.20;100.00;60650.00;5033425;28;20081;-73
2023/07/15 06:25:29;;;;;;;3.50;2.90;;;;;;;-141.20;100.00;60650.00;5051487;28;20063;-72
2023/07/15 06:27:55;;;;;;;4.70;3.05;;;;;;;-141.20;100.00;60650.00;5069922;28;20037;-73
2023/07/15 06:30:20;;;;;;;3.45;3.03;;;;;;;-141.20;100.00;60650.00;5057005;28;20028;-73
2023/07/15 06:32:45;;;;;;;4.32;3.00;;;;;;;-141.20;100.00;60650.00;5069576;28;20116;-72
2023/07/15 06:35:11;;;;;;;4.25;3.00;;;;;;;-141.20;100.00;60650.00;5057122;28;20025;-72
2023/07/15 06:37:36;;;;;;;4.03;3.35;;;;;;;-141.20;100.00;60650.00;5051038;28;20116;-73
2023/07/15 06:40:03;;;;;;;3.28;2.88;;;;;;;-141.20;100.00;60650.00;5043566;28;20021;-73
2023/07/15 06:42:29;;;;;;;4.45;3.40;;;;;;;-141.20;100.00;60650.00;5062220;28;20401;-73
2023/07/15 06:44:54;;;;;;;6.40;3.95;;;;;;;-141.20;100.00;60650.00;5052726;28;20029;-73
2023/07/15 06:47:20;;;;;;;9.10;3.60;;;;;;;-141.20;100.00;60650.00;5070999;28;20406;-73
2023/07/15 06:49:45;;;;;;;8.48;3.05;;;;;;;-141.20;100.00;60650.00;5069669;28;20025;-73
2023/07/15 06:52:11;;;;;;;4.60;3.28;;;;;;;-141.20;100.00;60650.00;5064248;28;20075;-73
2023/07/15 06:54:36;;;;;;;3.55;2.95;;;;;;;-141.20;100.00;60650.00;5050768;28;20025;-73
2023/07/15 06:57:02;;;;;;;3.47;2.90;;;;;;;-141.20;100.00;60650.00;5049607;28;20029;-74
2023/07/15 06:59:27;;;;;;;4.53;2.75;;;;;;;-141.20;100.00;60650.00;5049774;28;20497;-73
2023/07/15 07:01:52;;;;;;;4.22;2.97;;;;;;;-141.20;100.00;60650.00;5051710;28;20032;-73
2023/07/15 07:04:18;;;;;;;3.95;2.55;;;;;;;-141.20;100.00;60650.00;5036950;28;20032;-73
2023/07/15 07:06:43;;;;;;;5.00;2.72;;;;;;;-141.20;100.00;60650.00;5073234;28;20042;-73
2023/07/15 07:09:08;;;;;;;3.25;2.85;;;;;;;-141.20;100.00;60650.00;5073680;28;20035;-73
2023/07/15 07:11:34;;;;;;;3.70;2.75;;;;;;;-141.20;100.00;60650.00;5059999;28;20033;-73
2023/07/15 07:13:59;;;;;;;3.67;2.88;;;;;;;-141.20;100.00;60650.00;5062099;28;20024;-73
2023/07/15 07:16:25;;;;;;;3.30;3.00;;;;;;;-141.20;100.00;60650.00;5065014;28;20041;-73
2023/07/15 07:18:50;;;;;;;4.18;3.17;;;;;;;-141.20;100.00;60650.00;5065901;28;20021;-73
2023/07/15 07:21:15;;;;;;;4.40;3.30;;;;;;;-141.20;100.00;60650.00;5053171;28;20398;-73
2023/07/15 07:23:41;;;;;;;6.20;2.90;;;;;;;-141.20;100.00;60650.00;5072390;28;20042;-73
2023/07/15 07:26:06;;;;;;;4.18;2.65;;;;;;;-141.20;100.00;60650.00;5044898;28;20489;-74
2023/07/15 07:28:40;;;;;;;4.45;3.00;;;;;;;-141.20;100.00;60650.00;5058198;28;20406;-74
2023/07/15 07:31:05;;;;;;;7.03;3.40;;;;;;;-141.20;100.00;60650.00;5052351;28;20075;-74
2023/07/15 07:33:31;;;;;;;5.80;3.22;;;;;;;-141.20;100.00;60650.00;5066498;28;20052;-74
2023/07/15 07:35:56;;;;;;;5.28;3.05;;;;;;;-141.20;100.00;60650.00;5072203;28;20126;-74
2023/07/15 07:38:21;;;;;;;4.32;3.05;;;;;;;-141.20;100.00;60650.00;5053237;28;20025;-74
2023/07/15 07:40:47;;;;;;;5.03;2.80;;;;;;;-141.20;100.00;60650.00;5058093;28;20044;-73
2023/07/15 07:43:12;;;;;;;4.88;2.63;;;;;;;-141.20;100.00;60650.00;5058795;28;20025;-73
2023/07/15 07:45:38;;;;;;;4.40;2.88;;;;;;;-141.20;100.00;60650.00;5061000;28;20517;-73
2023/07/15 07:48:03;;;;;;;4.35;2.90;;;;;;;-141.20;100.00;60650.00;5046903;28;20050;-73
2023/07/15 07:50:29;;;;;;;2.95;2.33;;;;;;;-141.20;100.00;60650.00;5065309;28;20534;-73
2023/07/15 07:52:54;;;;;;;4.45;3.00;;;;;;;-141.20;100.00;60650.00;5066158;28;20024;-73
2023/07/15 07:55:19;;;;;;;3.28;2.75;;;;;;;-141.20;100.00;60650.00;5063784;28;20086;-73
2023/07/15 07:57:45;;;;;;;7.03;2.95;;;;;;;-141.20;100.00;60650.00;5052722;28;20100;-73
2023/07/15 08:00:11;;;;;;;3.65;2.63;;;;;;;-141.20;100.00;60650.00;5053506;28;20036;-73
2023/07/15 08:02:36;;;;;;;4.75;2.85;;;;;;;-141.20;100.00;60650.00;5052310;28;20052;-73
2023/07/15 08:05:01;;;;;;;4.75;2.90;;;;;;;-141.20;100.00;60650.00;5053605;28;20162;-74
2023/07/15 08:07:27;;;;;;;3.03;2.50;;;;;;;-141.20;100.00;60650.00;5065210;28;20716;-74
2023/07/15 08:09:53;;;;;;;5.57;2.63;;;;;;;-141.20;100.00;60650.00;5055627;28;20483;-73
2023/07/15 08:12:18;;;;;;;5.00;3.53;;;;;;;-141.20;100.00;60650.00;5060705;28;20048;-74
2023/07/15 08:14:43;;;;;;;5.78;2.90;;;;;;;-141.20;100.00;60650.00;5051171;28;20032;-74
2023/07/15 08:17:09;;;;;;;2.50;2.30;;;;;;;-141.20;100.00;60650.00;5064725;28;20035;-74
2023/07/15 08:19:34;;;;;;;4.07;2.50;;;;;;;-141.20;100.00;60650.00;5052519;28;20048;-73
2023/07/15 08:22:00;;;;;;;3.30;2.42;;;;;;;-141.20;100.00;60650.00;5052009;28;20045;-74
2023/07/15 08:24:25;;;;;;;3.40;2.60;;;;;;;-141.20;100.00;60650.00;5054223;28;20040;-74
2023/07/15 08:26:51;;;;;;;2.95;2.40;;;;;;;-141.20;100.00;60650.00;5059337;28;20100;-73
2023/07/15 08:29:16;;;;;;;3.15;2.50;;;;;;;-141.20;100.00;60650.00;5052032;28;20044;-74
2023/07/15 08:31:42;;;;;;;2.88;2.55;;;;;;;-141.20;100.00;60650.00;5051131;28;20029;-73
2023/07/15 08:34:07;;;;;;;4.22;2.40;;;;;;;-141.20;100.00;60650.00;5050639;28;20037;-73
2023/07/15 08:36:34;;;;;;;3.33;2.67;;;;;;;-141.20;100.00;60650.00;5071165;28;20024;-73
2023/07/15 08:38:59;;;;;;;4.68;2.70;;;;;;;-141.20;100.00;60650.00;5065736;28;20048;-74
2023/07/15 08:41:25;;;;;;;3.70;2.58;;;;;;;-141.20;100.00;60650.00;5053569;28;20028;-74
2023/07/15 08:43:51;;;;;;;4.28;2.75;;;;;;;-141.20;100.00;60650.00;5071186;28;20040;-74
2023/07/15 08:46:26;;;;;;;3.38;2.55;;;;;;;-141.20;100.00;60650.00;5068468;28;20032;-74
2023/07/15 08:48:52;;;;;;;;;;;;;;;-141.20;100.00;60650.00;5038750;28;20442;-74
2023/07/15 08:51:21;;;;;;;4.97;2.75;;;;;;;-141.20;100.00;60650.00;5067919;28;19912;-76
2023/07/15 08:53:46;;;;;;;3.00;2.58;;;;;;;-141.20;100.00;60650.00;5065451;28;20395;-77
2023/07/15 08:56:12;;;;;;;3.42;2.72;;;;;;;-141.20;100.00;60650.00;5047184;28;20032;-76
2023/07/15 08:58:38;;;;;;;2.90;2.58;;;;;;;-141.20;100.00;60650.00;5049102;28;20037;-77
2023/07/15 09:01:04;;;;;;;4.97;3.03;;;;;;;-141.20;100.00;60650.00;5063513;28;20031;-77
2023/07/15 09:03:29;;;;;;;2.60;2.40;;;;;;;-141.20;100.00;60650.00;5054780;28;20052;-78
2023/07/15 09:05:54;;;;;;;4.90;2.53;;;;;;;-141.20;100.00;60650.00;5071678;28;20521;-77
2023/07/15 09:08:20;;;;;;;4.28;2.60;;;;;;;-141.20;100.00;60650.00;5049264;28;20064;-77
2023/07/15 09:10:56;;;;;;;3.95;2.58;;;;;;;-141.20;100.00;60650.00;5063112;28;20107;-76
2023/07/15 09:13:23;;;;;;;2.90;2.40;;;;;;;-141.20;100.00;60650.00;5041405;28;20064;-76
2023/07/15 09:15:48;;;;;;;4.20;2.30;;;;;;;-141.20;100.00;60650.00;5071787;28;20082;-76
2023/07/15 09:18:14;;;;;;;3.83;2.50;;;;;;;-141.20;100.00;60650.00;5064278;28;20041;-77
2023/07/15 09:20:40;;;;;;;4.68;2.85;;;;;;;-141.20;100.00;60650.00;5066352;28;20387;-77
2023/07/15 09:23:06;;;;;;;4.10;2.47;;;;;;;-141.20;100.00;60650.00;5034556;28;20056;-77
2023/07/15 09:25:31;;;;;;;3.63;2.38;;;;;;;-141.20;100.00;60650.00;5064174;28;20108;-77
2023/07/15 09:27:56;;;;;;;4.70;2.40;;;;;;;-141.20;100.00;60650.00;5057539;28;20051;-77
2023/07/15 09:30:22;;;;;;;3.60;2.67;;;;;;;-141.20;100.00;60650.00;5057025;28;20025;-77
2023/07/15 09:32:47;;;;;;;4.20;2.10;;;;;;;-141.20;100.00;60650.00;5062380;28;20044;-77
2023/07/15 09:35:16;;;;;;;2.63;1.70;;;;;;;-141.20;100.00;60650.00;5046137;28;20067;-77
2023/07/15 09:37:41;;;;;;;7.82;2.40;;;;;;;-141.20;100.00;60650.00;5063180;28;20044;-76
2023/07/15 09:40:08;;;;;;;4.32;2.40;;;;;;;-141.20;100.00;60650.00;5063957;28;20027;-77
2023/07/15 09:42:57;;;;;;;3.65;2.03;;;;;;;-141.20;100.00;60650.00;5041119;28;20041;-80
2023/07/15 09:45:41;;;;;;;3.20;2.00;;;;;;;-141.20;100.00;60650.00;5049111;28;20040;-77
2023/07/15 09:48:08;;;;;;;3.15;1.85;;;;;;;-141.20;100.00;60650.00;5057765;28;20036;-77
2023/07/15 09:50:35;;;;;;;3.72;2.08;;;;;;;-141.20;100.00;60650.00;5056403;28;20021;-76
2023/07/15 09:53:01;;;;;;;4.75;2.20;;;;;;;-141.20;100.00;60650.00;5057458;28;20041;-77
2023/07/15 09:55:28;;;;;;;2.47;2.28;;;;;;;-141.20;100.00;60650.00;5070102;28;20025;-77
2023/07/15 09:58:18;;;;;;;3.40;2.40;;;;;;;-141.20;100.00;60650.00;5057521;28;20032;-77
2023/07/15 10:00:47;;;;;;;2.42;2.10;;;;;;;-141.20;100.00;60650.00;5060724;28;20513;-76
2023/07/15 10:03:26;;;;;;;3.22;2.17;;;;;;;-141.20;100.00;60650.00;5036548;28;20021;-77
2023/07/15 10:05:52;;;;;;;2.97;2.10;;;;;;;-141.20;100.00;60650.00;5070326;28;20760;-77
2023/07/15 10:08:17;;;;;;;2.42;1.90;;;;;;;-141.20;100.00;60650.00;5031914;28;20052;-77
2023/07/15 10:10:43;;;;;;;2.33;2.00;;;;;;;-141.20;100.00;60650.00;5062899;28;20060;-77
2023/07/15 10:13:10;;;;;;;3.92;1.95;;;;;;;-141.20;100.00;60650.00;5064968;28;20024;-78
2023/07/15 10:15:35;;;;;;;2.20;1.90;;;;;;;-141.20;100.00;60650.00;5050197;28;20376;-76
2023/07/15 10:18:20;;;;;;;2.15;1.90;;;;;;;-141.20;100.00;60650.00;5068631;28;20031;-77
2023/07/15 10:20:58;;;;;;;3.03;2.35;;;;;;;-141.20;100.00;60650.00;5057127;28;20418;-76
2023/07/15 10:23:25;;;;;;;2.72;2.05;;;;;;;-141.20;100.00;60650.00;5060466;28;20060;-76
2023/07/15 10:26:04;;;;;;;2.20;1.80;;;;;;;-141.20;100.00;60650.00;5064667;28;20079;-78
2023/07/15 10:28:34;;;;;;;3.58;1.90;;;;;;;-141.20;100.00;60650.00;5051116;28;20040;-77
2023/07/15 10:31:14;;;;;;;1.95;1.75;;;;;;;-141.20;100.00;60650.00;5049815;28;20033;-77
2023/07/15 10:33:55;;;;;;;2.50;1.80;;;;;;;-141.20;100.00;60650.00;5034027;28;20039;-77
2023/07/15 10:36:40;;;;;;;3.00;2.35;;;;;;;-141.20;100.00;60650.00;5053857;28;20107;-78
2023/07/15 10:39:16;;;;;;;2.38;2.05;;;;;;;-141.20;100.00;60650.00;5063230;28;20032;-76
2023/07/15 10:41:42;;;;;;;2.25;1.80;;;;;;;-141.20;100.00;60650.00;5046300;28;20367;-77
2023/07/15 10:44:22;;;;;;;3.00;1.90;;;;;;;-141.20;100.00;60650.00;5076503;28;20431;-77
2023/07/15 10:46:51;;;;;;;4.95;1.90;;;;;;;-141.20;100.00;60650.00;5060839;28;20052;-77
2023/07/15 10:49:18;;;;;;;5.03;2.50;;;;;;;-141.20;100.00;60650.00;5056442;28;20016;-77
2023/07/15 10:51:44;;;;;;;4.22;2.05;;;;;;;-141.20;100.00;60650.00;5055538;28;20036;-76
2023/07/15 10:54:09;;;;;;;2.35;1.80;;;;;;;-141.20;100.00;60650.00;5056319;28;20021;-77
2023/07/15 10:56:34;;;;;;;2.17;1.98;;;;;;;-141.20;100.00;60650.00;5058757;28;20040;-77
2023/07/15 10:59:00;;;;;;;4.10;2.20;;;;;;;-141.20;100.00;60650.00;5076314;28;20104;-77
2023/07/15 11:01:25;;;;;;;3.10;2.33;;;;;;;-141.20;100.00;60650.00;5076523;28;20502;-76
2023/07/15 11:03:50;;;;;;;4.03;2.38;;;;;;;-141.20;100.00;60650.00;5067158;28;20052;-77
2023/07/15 11:06:16;;;;;;;3.53;2.08;;;;;;;-141.20;100.00;60650.00;5069921;28;20575;-77
2023/07/15 11:08:44;;;;;;;2.33;2.08;;;;;;;-141.20;100.00;60650.00;5065132;28;20024;-76